Pagrindinis puslapis
METAR-TAF:

METAR-TAF

Oro uostai :

Lemnos, Graikija

platuma: 39-55N, ilguma: 025-14E, Aukštis: 5 m

Dabartinis oras

Ataskaita buvo paskelbta 23 minutes, ne 18:20 UTC
Vėjas 8 kt iš Rytų/Šiaurės Rytų
Temperatūra 23°C
Drėgmė 61%
Slėgis 1019 hPa
Matomumas 10 km arba daugiau
nėra debesų žemiau 1500 m ir nėra kamuolinių lietaus debesų

METAR: LGLM 151820Z 06008KT CAVOK 23/15 Q1019

Laikas: 21:43 (18:43 UTC)

Prognozė

Ataskaita buvo paskelbta 1 valandą ir 43 minutes, ne 17:00 UTC
Prognozė galioja nuo 15 metu 18 UTC su 16 metu 03 UTC
Vėjas 18 kt iš Šiaurės Rytų
Matomumas 10 km arba daugiau
nėra debesų žemiau 1500 m ir nėra kamuolinių lietaus debesų

TAF: LGLM 151700Z 1518/1603 04018KT CAVOK

Orai ataskaitas ir orų prognozės (METAR, TAF).

turimą stotys yra geltonos ir raudonos taškus žemėlapyje.

Perkelti pele per norėdami pamatyti stoties vardą.

Tada spustelėkite, norėdami matyti oro stebėjimo ir prognozės.

Norėdami pakeisti žemėlapį: spustelėkite ant žalios mygtukų su juodo kryžiaus žemyn,; žalią mygtuką su brūkšneliu, jei norite nutolinti; arba žalių rodyklių gretimoms žemėlapius.


METAR-TAF: